Darstellungsparameter: Aktuell verwendete Einstellungen:
Skalierung der Graphiken ... ?
xyx+y,   Skalierungsfaktor:      Skalierung: Modus: x, Faktor: 1
Darstellungszeitraum ... ?
Vom - - bis: - -   Zeitraum: 03.12.2011 - 03.12.2011
Min/Max/Avg-Anzeige ... ?
Zeige MMA aktuell
Zeige MMA Monat
Zeige MMA alles
Zeige --A aktuell
Zeige --A Monat
Zeige --A alles
Keine MMA-Anzeige
MMA:
Average (ber die Originaldaten)
MMA-Basis: 03.12.2011 - 03.12.2011
Quicknavigation für Darstellung... ?
Tage:      1T, 2T, 3T, 5T -1T -2T -3T -5T +1T +2T +3T +5T
Wochen: 1W, 2W, 3W -1W -2W -3W +1W +2W +3W
Monate: 1M, 3M, 6M -1M -3M -6M +1M +3M +6M
Jahre:    1J, 3J, 5J, 10J -1J -3J -5J -10J +1J +3J +5J +10J
Nutze für die Darstellung ... ?
Originaldaten oder Mittelwerte auf ...
Stundenbasis Tagesbasis Wochenbasis
Monatsbasis Jahresbasis      Datenbasis: Original-Daten
Darstellen als:
Statistik (Auto) Statistik J:M      Darstellung:
Zur Graphik,    zurück zur Übersicht aller Sensoren.
 
Tabellarische Datenbersicht: ?
 
Sensor: Nr:Datum:Temp:Abs-Feuchte:Windchill:Wind:
Aussen-T/F 1 03-12-2011 00:01:02 0.2 C 4.52 g/m*3 0.2 C 0 km/h
2 03-12-2011 00:13:02 0.7 C 4.68 g/m*3 0.7 C 0 km/h
3 03-12-2011 00:25:02 0.5 C 4.61 g/m*3 0.5 C 0 km/h
4 03-12-2011 00:37:02 0.1 C 4.49 g/m*3 0.1 C 0 km/h
5 03-12-2011 00:49:02 -0.3 C 4.37 g/m*3 -0.3 C 0 km/h
6 03-12-2011 01:01:02 -0.4 C 4.34 g/m*3 -0.4 C 0 km/h
7 03-12-2011 01:13:03 -0.3 C 4.37 g/m*3 -0.3 C 0 km/h
8 03-12-2011 01:25:02 -0.2 C 4.4 g/m*3 -0.2 C 0 km/h
9 03-12-2011 01:37:02 -0.4 C 4.34 g/m*3 -0.4 C 0 km/h
10 03-12-2011 01:49:02 0 C 4.46 g/m*3 0 C 0 km/h
11 03-12-2011 02:01:02 0.1 C 4.54 g/m*3 0.1 C 0 km/h
12 03-12-2011 02:13:02 0.5 C 4.66 g/m*3 0.5 C 0 km/h
13 03-12-2011 02:25:03 0.7 C 4.73 g/m*3 0.7 C 0 km/h
14 03-12-2011 02:37:02 1.1 C 4.86 g/m*3 1.1 C 0 km/h
15 03-12-2011 02:50:04 2.2 C 5.24 g/m*3 2.2 C 0 km/h
16 03-12-2011 03:02:04 2.4 C 5.31 g/m*3 2.4 C 0 km/h
17 03-12-2011 03:14:03 2 C 5.17 g/m*3 2 C 0 km/h
18 03-12-2011 03:26:03 1.8 C 5.1 g/m*3 1.8 C 0 km/h
19 03-12-2011 03:38:01 2 C 5.17 g/m*3 2 C 0 km/h
20 03-12-2011 03:50:01 2.2 C 5.24 g/m*3 2.2 C 0 km/h
21 03-12-2011 04:02:02 2.2 C 5.24 g/m*3 2.2 C 0 km/h
22 03-12-2011 04:14:02 2.6 C 5.38 g/m*3 2.6 C 0 km/h
23 03-12-2011 04:26:02 3.2 C 5.54 g/m*3 3.2 C 0 km/h
24 03-12-2011 04:38:01 3.2 C 5.48 g/m*3 3.2 C 0 km/h
25 03-12-2011 04:50:02 3.3 C 5.4 g/m*3 3.3 C 0 km/h
Sensor: Nr:Datum:Temp:Abs-Feuchte:Windchill:Wind:
Aussen-T/F 26 03-12-2011 05:02:01 3.9 C 5.56 g/m*3 3.9 C 0 km/h
27 03-12-2011 05:14:01 4 C 5.4 g/m*3 4 C 0 km/h
28 03-12-2011 05:26:02 4.2 C 5.35 g/m*3 4.2 C 0 km/h
29 03-12-2011 05:38:01 4.3 C 5.25 g/m*3 4.3 C 0 km/h
30 03-12-2011 05:50:02 4.3 C 5.25 g/m*3 4.3 C 0 km/h
31 03-12-2011 06:02:01 4.1 C 5.25 g/m*3 4.1 C 0 km/h
32 03-12-2011 06:14:01 4.4 C 5.42 g/m*3 4.4 C 0 km/h
33 03-12-2011 06:26:01 5.3 C 5.48 g/m*3 5.3 C 0 km/h
34 03-12-2011 06:38:02 5.1 C 5.27 g/m*3 5.1 C 0 km/h
35 03-12-2011 06:50:02 5.3 C 5.34 g/m*3 5.3 C 0 km/h
36 03-12-2011 07:02:02 5.6 C 5.3 g/m*3 5.6 C 0 km/h
37 03-12-2011 07:14:02 5.8 C 5.3 g/m*3 5.8 C 0 km/h
38 03-12-2011 07:26:01 5.7 C 5.27 g/m*3 5.7 C 0 km/h
39 03-12-2011 07:38:02 5.8 C 5.23 g/m*3 5.8 C 0 km/h
40 03-12-2011 07:50:02 6 C 5.08 g/m*3 6 C 0 km/h
41 03-12-2011 08:02:02 6.1 C 5.04 g/m*3 6.1 C 0 km/h
42 03-12-2011 08:14:02 6.3 C 4.96 g/m*3 6.3 C 0 km/h
43 03-12-2011 08:26:01 6.5 C 4.95 g/m*3 6.5 C 0 km/h
44 03-12-2011 08:38:02 6.6 C 4.91 g/m*3 6.6 C 0 km/h
45 03-12-2011 08:50:02 6.7 C 4.86 g/m*3 6.7 C 0 km/h
46 03-12-2011 09:02:02 6.9 C 4.85 g/m*3 6.9 C 0 km/h
47 03-12-2011 09:14:02 7 C 4.8 g/m*3 7 C 0 km/h
48 03-12-2011 09:26:02 7.1 C 4.84 g/m*3 7.1 C 0 km/h
49 03-12-2011 09:38:02 7.2 C 4.87 g/m*3 7.2 C 0 km/h
50 03-12-2011 09:50:02 7.2 C 4.87 g/m*3 7.2 C 0 km/h
Sensor: Nr:Datum:Temp:Abs-Feuchte:Windchill:Wind:
Aussen-T/F 51 03-12-2011 10:02:01 7.3 C 4.98 g/m*3 7.3 C 0 km/h
52 03-12-2011 10:14:01 7.5 C 5.04 g/m*3 7.5 C 0 km/h
53 03-12-2011 10:26:02 7.5 C 5.04 g/m*3 7.5 C 0 km/h
54 03-12-2011 10:38:01 7.5 C 5.12 g/m*3 7.5 C 0 km/h
55 03-12-2011 10:50:02 7.5 C 5.2 g/m*3 7.5 C 0 km/h
56 03-12-2011 11:02:02 7.5 C 5.2 g/m*3 7.5 C 0 km/h
57 03-12-2011 11:14:02 7.6 C 5.24 g/m*3 7.6 C 0 km/h
58 03-12-2011 11:26:02 7.7 C 5.27 g/m*3 7.7 C 0 km/h
59 03-12-2011 11:38:03 7.7 C 5.27 g/m*3 7.7 C 0 km/h
60 03-12-2011 11:50:02 7.8 C 5.3 g/m*3 7.8 C 0 km/h
61 03-12-2011 12:02:02 7.9 C 5.34 g/m*3 7.9 C 0 km/h
62 03-12-2011 12:14:02 7.9 C 5.34 g/m*3 7.9 C 0 km/h
63 03-12-2011 12:26:01 7.9 C 5.42 g/m*3 7.9 C 0 km/h
64 03-12-2011 12:38:02 8 C 5.37 g/m*3 8 C 0 km/h
65 03-12-2011 12:50:02 7.8 C 5.55 g/m*3 7.8 C 0 km/h
66 03-12-2011 13:02:02 7.5 C 5.6 g/m*3 7.5 C 0 km/h
67 03-12-2011 13:14:02 7.6 C 5.72 g/m*3 7.6 C 0 km/h
68 03-12-2011 13:26:01 7.7 C 5.84 g/m*3 7.7 C 0 km/h
69 03-12-2011 13:38:02 7.5 C 5.84 g/m*3 7.5 C 0 km/h
70 03-12-2011 13:50:02 7.7 C 6 g/m*3 7.7 C 0 km/h
71 03-12-2011 14:02:02 7.9 C 6 g/m*3 7.9 C 0 km/h
72 03-12-2011 14:14:02 8.1 C 5.91 g/m*3 8.1 C 0 km/h
73 03-12-2011 14:26:02 8.2 C 5.86 g/m*3 8.2 C 0 km/h
74 03-12-2011 14:38:02 8.3 C 5.9 g/m*3 8.3 C 0 km/h
75 03-12-2011 14:50:01 8.4 C 5.85 g/m*3 8.4 C 0 km/h
Sensor: Nr:Datum:Temp:Abs-Feuchte:Windchill:Wind:
Aussen-T/F 76 03-12-2011 15:02:02 8.6 C 5.93 g/m*3 8.6 C 0 km/h
77 03-12-2011 15:14:02 8.6 C 6.02 g/m*3 8.6 C 0 km/h
78 03-12-2011 15:26:02 8.6 C 6.02 g/m*3 8.6 C 0 km/h
79 03-12-2011 15:38:02 8.5 C 6.06 g/m*3 8.5 C 0 km/h
80 03-12-2011 15:50:02 8.5 C 6.15 g/m*3 8.5 C 0 km/h
81 03-12-2011 16:02:01 8.6 C 6.19 g/m*3 8.6 C 0 km/h
82 03-12-2011 16:14:01 8.6 C 6.19 g/m*3 8.6 C 0 km/h
83 03-12-2011 16:26:02 8.4 C 6.19 g/m*3 8.4 C 0 km/h
84 03-12-2011 16:38:02 8.3 C 6.32 g/m*3 8.3 C 0 km/h
85 03-12-2011 16:50:01 8.4 C 6.45 g/m*3 8.4 C 0 km/h
86 03-12-2011 17:02:02 8.4 C 6.45 g/m*3 8.4 C 0 km/h
87 03-12-2011 17:14:02 8.7 C 6.49 g/m*3 8.7 C 0 km/h
88 03-12-2011 17:26:01 8.7 C 6.4 g/m*3 8.7 C 0 km/h
89 03-12-2011 17:38:02 8.7 C 6.4 g/m*3 8.7 C 0 km/h
90 03-12-2011 17:50:02 8.9 C 6.48 g/m*3 8.9 C 0 km/h
91 03-12-2011 18:02:02 9 C 6.44 g/m*3 9 C 0 km/h
92 03-12-2011 18:14:02 8.8 C 6.61 g/m*3 8.8 C 0 km/h
93 03-12-2011 18:26:01 8.7 C 6.66 g/m*3 8.7 C 0 km/h
94 03-12-2011 18:38:02 8.6 C 6.7 g/m*3 8.6 C 0 km/h
95 03-12-2011 18:50:02 8.6 C 6.79 g/m*3 8.6 C 0 km/h
96 03-12-2011 19:02:02 8.7 C 6.83 g/m*3 8.7 C 0 km/h
97 03-12-2011 19:14:02 8.8 C 6.88 g/m*3 8.8 C 0 km/h
98 03-12-2011 19:26:01 9 C 6.79 g/m*3 9 C 0 km/h
99 03-12-2011 19:38:02 9 C 6.7 g/m*3 9 C 0 km/h
100 03-12-2011 19:50:01 9.1 C 6.74 g/m*3 9.1 C 0 km/h
Sensor: Nr:Datum:Temp:Abs-Feuchte:Windchill:Wind:
Aussen-T/F 101 03-12-2011 20:02:02 9.2 C 6.7 g/m*3 9.2 C 0 km/h
102 03-12-2011 20:14:02 9.3 C 6.65 g/m*3 9.3 C 0 km/h
103 03-12-2011 20:26:02 9.2 C 6.61 g/m*3 9.2 C 0 km/h
104 03-12-2011 20:38:02 9.2 C 6.7 g/m*3 9.2 C 0 km/h
105 03-12-2011 20:50:02 9.3 C 6.65 g/m*3 9.3 C 0 km/h
106 03-12-2011 21:02:02 9.1 C 6.57 g/m*3 9.1 C 0 km/h
107 03-12-2011 21:14:02 9.1 C 6.65 g/m*3 9.1 C 0 km/h
108 03-12-2011 21:26:02 9.3 C 6.65 g/m*3 9.3 C 0 km/h
109 03-12-2011 21:38:01 9.2 C 6.52 g/m*3 9.2 C 0 km/h
110 03-12-2011 21:50:02 8.9 C 6.48 g/m*3 8.9 C 0 km/h
111 03-12-2011 22:02:01 8.5 C 6.4 g/m*3 8.5 C 0 km/h
112 03-12-2011 22:14:01 8.2 C 6.45 g/m*3 8.2 C 0 km/h
113 03-12-2011 22:26:02 8.5 C 6.57 g/m*3 8.5 C 0 km/h
114 03-12-2011 22:38:02 8.5 C 6.4 g/m*3 8.5 C 0 km/h
115 03-12-2011 22:50:02 8 C 6.2 g/m*3 8 C 0 km/h
116 03-12-2011 23:02:02 7.2 C 6.2 g/m*3 7.2 C 0 km/h
117 03-12-2011 23:14:02 7.3 C 6.4 g/m*3 7.3 C 0 km/h
118 03-12-2011 23:26:02 7.2 C 6.44 g/m*3 7.2 C 0 km/h
119 03-12-2011 23:38:02 7.6 C 6.61 g/m*3 7.6 C 0 km/h
120 03-12-2011 23:50:01 7.5 C 6.56 g/m*3 7.5 C 0 km/h

Legende:
   Min
   Max


Maximal/Minimal-Werte vom 03.12.2011 - 03.12.2011

Sensor Min Max Avg
Temp
(Aussen-T/F)
-0.4 °C
03-12-2011  01:01:02
9.3 °C
03-12-2011  20:14:02
6.27 °C
Abs-Feuchte
(Aussen-T/F)
4.34 g/m*3
03-12-2011  01:01:02
6.88 g/m*3
03-12-2011  19:14:02
5.61 g/m*3
Windchill
(Aussen-T/F)
-0.4 C
03-12-2011  01:01:02
9.3 C
03-12-2011  20:14:02
6.21 C

Die Daten stammen von einer Davis Vantage Pro 2 Wetter-Station und werden unter Linux mit der Software wview2wettercgi und aufbereitet. Alle Angaben erfolgen ohne Gewähr für ihre Vollständigkeit oder Richtigkeit.
Kontakt: Rainer Krienke krienke@uni-koblenz.de . Meine Webseiten an der Uni Koblenz oder privat.
Version: $Revision: 0.78 $